createdAt,value
2023-07-26T00:01:36.104Z,7.1
2023-07-26T00:04:36.110Z,5.8
2023-07-26T00:07:36.121Z,8.7
2023-07-26T00:10:36.119Z,5.4
2023-07-26T00:13:36.112Z,6.5
2023-07-26T00:16:36.436Z,8.4
2023-07-26T00:19:36.130Z,7
2023-07-26T00:22:36.126Z,6
2023-07-26T00:25:36.129Z,6
2023-07-26T00:28:36.139Z,6.9
2023-07-26T00:31:36.162Z,6.4
2023-07-26T00:34:36.136Z,5.9
2023-07-26T00:37:36.134Z,6.1
2023-07-26T00:40:36.142Z,7
2023-07-26T00:43:36.142Z,7.4
2023-07-26T00:46:36.357Z,7.2
2023-07-26T00:49:36.142Z,5.7
2023-07-26T00:52:36.146Z,5.9
2023-07-26T00:55:36.148Z,5.2
2023-07-26T00:58:36.171Z,8.2
2023-07-26T01:01:36.180Z,6.6
2023-07-26T01:04:36.171Z,4.9
2023-07-26T01:07:36.178Z,6.7
2023-07-26T01:10:36.192Z,8.3
2023-07-26T01:13:36.203Z,6.6
2023-07-26T01:16:36.303Z,7.8
2023-07-26T01:19:36.249Z,7.5
2023-07-26T01:22:36.252Z,6.7
2023-07-26T01:25:36.253Z,6.8
2023-07-26T01:28:36.301Z,6
2023-07-26T01:31:36.409Z,7.9
2023-07-26T01:34:36.318Z,6.2
2023-07-26T01:37:36.402Z,8.3
2023-07-26T01:40:36.344Z,6.3
2023-07-26T01:43:36.322Z,5.4
2023-07-26T01:46:36.358Z,4.9
2023-07-26T01:49:36.328Z,5.3
2023-07-26T01:52:36.341Z,7.6
2023-07-26T01:55:36.334Z,6.4
2023-07-26T01:58:36.332Z,7.7
2023-07-26T02:01:36.574Z,5.7
2023-07-26T02:04:36.389Z,8.9
2023-07-26T02:07:36.376Z,7.6
2023-07-26T02:10:36.331Z,6.1
2023-07-26T02:13:36.341Z,6.5
2023-07-26T02:16:36.359Z,5.4
2023-07-26T02:19:36.346Z,7.2
2023-07-26T02:22:36.348Z,9
2023-07-26T02:25:36.339Z,6.7
2023-07-26T02:28:36.339Z,6.9
2023-07-26T02:31:36.527Z,6.6
2023-07-26T02:34:36.339Z,6
2023-07-26T02:37:36.342Z,6.4
2023-07-26T02:40:36.352Z,5.6
2023-07-26T02:43:40.879Z,6
2023-07-26T02:46:36.351Z,5.9
2023-07-26T02:49:36.355Z,7.3
2023-07-26T02:52:36.365Z,6.6
2023-07-26T02:55:36.360Z,6.1
2023-07-26T02:58:36.361Z,6
2023-07-26T03:01:36.580Z,5.7
2023-07-26T03:04:36.357Z,6
2023-07-26T03:07:36.370Z,3.8
2023-07-26T03:10:36.374Z,11.3
2023-07-26T03:13:36.367Z,5.9
2023-07-26T03:16:36.369Z,5.3
2023-07-26T03:19:36.365Z,6
2023-07-26T03:22:36.381Z,5
2023-07-26T03:25:36.384Z,7.1
2023-07-26T03:28:36.378Z,6.5
2023-07-26T03:31:36.384Z,6.2
2023-07-26T03:34:36.382Z,6.4
2023-07-26T03:37:36.382Z,6.5
2023-07-26T03:40:36.390Z,5
2023-07-26T03:43:36.406Z,7.2
2023-07-26T03:46:36.389Z,5.3
2023-07-26T03:49:36.398Z,6.3
2023-07-26T03:52:36.403Z,5.5
2023-07-26T03:55:36.411Z,5.6
2023-07-26T03:58:36.404Z,5.1
2023-07-26T04:01:36.478Z,5
2023-07-26T04:04:36.413Z,5.1
2023-07-26T04:07:36.407Z,6.9
2023-07-26T04:10:36.407Z,6.6
2023-07-26T04:13:36.413Z,5
2023-07-26T04:16:36.614Z,5.5
2023-07-26T04:19:36.436Z,5.4
2023-07-26T04:22:36.438Z,6.3
2023-07-26T04:25:36.424Z,6.1
2023-07-26T04:28:36.427Z,4.8
2023-07-26T04:31:36.431Z,7.7
2023-07-26T04:34:36.437Z,5.6
2023-07-26T04:37:36.431Z,4.7
2023-07-26T04:40:36.441Z,5.8
2023-07-26T04:43:36.440Z,5.4
2023-07-26T04:46:36.791Z,5.9
2023-07-26T04:49:36.452Z,4.3
2023-07-26T04:52:36.456Z,5.3
2023-07-26T04:55:36.463Z,6.2
2023-07-26T04:58:36.468Z,6.3
2023-07-26T05:01:36.490Z,5.2
2023-07-26T05:04:36.508Z,5.4
2023-07-26T05:07:36.489Z,4.4
2023-07-26T05:10:36.537Z,7.2
2023-07-26T05:13:36.496Z,6.4
2023-07-26T05:16:36.556Z,4.2
2023-07-26T05:19:36.505Z,5.7
2023-07-26T05:22:36.524Z,6.4
2023-07-26T05:25:36.511Z,4.6
2023-07-26T05:28:36.524Z,4.7
2023-07-26T05:31:36.521Z,4.2
2023-07-26T05:34:36.516Z,5.5
2023-07-26T05:37:36.533Z,5.1
2023-07-26T05:40:36.534Z,5.8
2023-07-26T05:43:36.543Z,4.3
2023-07-26T05:46:36.570Z,5.2
2023-07-26T05:49:36.542Z,4.2
2023-07-26T05:52:36.544Z,4.4
2023-07-26T05:55:36.548Z,5.2
2023-07-26T05:58:36.556Z,5.4
2023-07-26T06:01:36.746Z,5.9
2023-07-26T06:04:36.558Z,5.5
2023-07-26T06:07:36.552Z,5
2023-07-26T06:10:36.563Z,4.8
2023-07-26T06:13:36.593Z,5.9
2023-07-26T06:16:36.650Z,4.9
2023-07-26T06:19:36.583Z,4.6
2023-07-26T06:22:36.594Z,5.6
2023-07-26T06:25:36.586Z,5.1
2023-07-26T06:28:36.590Z,5
2023-07-26T06:31:36.590Z,6.6
2023-07-26T06:34:36.624Z,7
2023-07-26T06:37:36.598Z,4.4
2023-07-26T06:40:36.597Z,5.3
2023-07-26T06:43:36.606Z,4.8
2023-07-26T06:46:36.654Z,4.3
2023-07-26T06:49:36.616Z,4.1
2023-07-26T06:52:36.614Z,5.1
2023-07-26T06:55:36.627Z,4.2
2023-07-26T06:58:36.642Z,4.1
2023-07-26T07:01:36.746Z,5.3
2023-07-26T07:04:36.658Z,4.1
2023-07-26T07:07:36.721Z,5.4
2023-07-26T07:10:36.730Z,5.7
2023-07-26T07:13:36.730Z,3.5
2023-07-26T07:16:36.801Z,4.5
2023-07-26T07:19:36.745Z,3.5
2023-07-26T07:22:36.771Z,4.6
2023-07-26T07:25:36.747Z,4.6
2023-07-26T07:28:36.744Z,4.8
2023-07-26T07:31:37.195Z,3.9
2023-07-26T07:34:36.746Z,5.2
2023-07-26T07:37:36.756Z,5.7
2023-07-26T07:40:36.750Z,5
2023-07-26T07:43:36.761Z,4.4
2023-07-26T07:46:38.158Z,3.6
2023-07-26T07:49:36.751Z,5.4
2023-07-26T07:52:36.754Z,4.3
2023-07-26T07:55:36.764Z,3.8
2023-07-26T07:58:36.762Z,4.6
2023-07-26T08:01:36.935Z,4.7
2023-07-26T08:04:36.772Z,3.6
2023-07-26T08:07:36.761Z,3.4
2023-07-26T08:10:36.752Z,3.7
2023-07-26T08:13:36.757Z,3.3
2023-07-26T08:16:36.850Z,3.5
2023-07-26T08:19:36.765Z,3.8
2023-07-26T08:22:36.773Z,3.3
2023-07-26T08:25:36.784Z,3.4
2023-07-26T08:28:36.792Z,2.5
2023-07-26T08:31:37.023Z,3.8
2023-07-26T08:34:36.771Z,3.5
2023-07-26T08:37:36.772Z,3.6
2023-07-26T08:40:36.772Z,3.8
2023-07-26T08:43:36.789Z,2.2
2023-07-26T08:46:36.776Z,3.5
2023-07-26T08:49:36.775Z,2.3
2023-07-26T08:52:36.782Z,3.6
2023-07-26T08:55:36.780Z,3.7
2023-07-26T08:58:36.788Z,2.9
2023-07-26T09:01:46.601Z,3.8
2023-07-26T09:04:36.794Z,2.7
2023-07-26T09:07:36.781Z,4.2
2023-07-26T09:10:36.791Z,2.9
2023-07-26T09:13:36.794Z,3
2023-07-26T09:16:36.790Z,4.6
2023-07-26T09:19:36.803Z,3.3
2023-07-26T09:22:36.798Z,3.5
2023-07-26T09:25:36.813Z,3.2
2023-07-26T09:28:36.798Z,4
2023-07-26T09:31:36.838Z,3.1
2023-07-26T09:34:36.838Z,2.6
2023-07-26T09:37:36.806Z,3.7
2023-07-26T09:40:38.347Z,4.7
2023-07-26T09:43:38.201Z,4.5
2023-07-26T09:46:36.826Z,4.1
2023-07-26T09:49:44.484Z,2.6
2023-07-26T09:52:36.817Z,3
2023-07-26T09:55:38.243Z,4.3
2023-07-26T09:58:36.831Z,3.1
2023-07-26T10:01:36.839Z,3.9
2023-07-26T10:04:36.842Z,4.9
2023-07-26T10:07:36.830Z,4.1
2023-07-26T10:10:36.839Z,4.3
2023-07-26T10:13:36.851Z,3.6
2023-07-26T10:16:36.925Z,3.3
2023-07-26T10:19:36.850Z,3.7
2023-07-26T10:22:36.854Z,2.7
2023-07-26T10:25:36.852Z,3.8
2023-07-26T10:28:36.863Z,3.4
2023-07-26T10:31:36.861Z,2.3
2023-07-26T10:34:36.873Z,2.4
2023-07-26T10:37:36.872Z,3.1
2023-07-26T10:40:36.883Z,3.7
2023-07-26T10:43:36.877Z,3.5
2023-07-26T10:46:37.124Z,2.7
2023-07-26T10:49:36.894Z,2.4
2023-07-26T10:52:36.911Z,3.2
2023-07-26T10:55:36.904Z,3
2023-07-26T10:58:36.901Z,3.1
2023-07-26T11:01:37.024Z,3.2
2023-07-26T11:04:36.934Z,2.5
2023-07-26T11:07:36.911Z,2.5
2023-07-26T11:10:36.933Z,3.3
2023-07-26T11:13:36.924Z,2.9
2023-07-26T11:16:37.041Z,3.5
2023-07-26T11:19:36.941Z,2.9
2023-07-26T11:22:36.943Z,2
2023-07-26T11:25:36.962Z,2.2
2023-07-26T11:28:37.028Z,3.9
2023-07-26T11:31:36.991Z,2.4
2023-07-26T11:34:36.981Z,2.2
2023-07-26T11:37:36.970Z,2.9
2023-07-26T11:40:36.978Z,2.5
2023-07-26T11:43:36.986Z,2.1
2023-07-26T11:46:37.210Z,3
2023-07-26T11:49:36.994Z,2.3
2023-07-26T11:52:37.022Z,2.4
2023-07-26T11:55:37.015Z,2.4
2023-07-26T11:58:37.031Z,2.4
2023-07-26T12:01:37.214Z,2.1
2023-07-26T12:04:37.075Z,2.9
2023-07-26T12:07:37.053Z,2.6
2023-07-26T12:10:37.069Z,1.9
2023-07-26T12:13:37.067Z,2.4
2023-07-26T12:16:37.444Z,2.2
2023-07-26T12:19:37.078Z,2.2
2023-07-26T12:22:37.086Z,3.4
2023-07-26T12:25:37.112Z,2.5
2023-07-26T12:28:37.098Z,2.4
2023-07-26T12:31:37.453Z,3
2023-07-26T12:34:37.120Z,3.2
2023-07-26T12:37:37.126Z,3.2
2023-07-26T12:40:37.137Z,2.7
2023-07-26T12:43:37.130Z,3.2
2023-07-26T12:46:55.400Z,3.4
2023-07-26T12:49:37.152Z,3.2
2023-07-26T12:52:37.162Z,4.5
2023-07-26T12:55:37.178Z,3.8
2023-07-26T12:58:37.905Z,3.4
2023-07-26T13:01:37.257Z,3.4
2023-07-26T13:04:37.187Z,4.3
2023-07-26T13:07:37.192Z,3
2023-07-26T13:10:37.202Z,2.9
2023-07-26T13:13:37.205Z,2.6
2023-07-26T13:16:37.582Z,2.7
2023-07-26T13:19:37.214Z,3.2
2023-07-26T13:22:37.228Z,3.5
2023-07-26T13:25:37.230Z,3.1
2023-07-26T13:28:37.240Z,2.4
2023-07-26T13:31:37.245Z,2.8
2023-07-26T13:34:37.238Z,4.1
2023-07-26T13:37:37.248Z,2.4
2023-07-26T13:40:37.258Z,2.8
2023-07-26T13:43:37.260Z,2.7
2023-07-26T13:46:37.301Z,2.3
2023-07-26T13:49:37.272Z,2.6
2023-07-26T13:52:37.275Z,2.9
2023-07-26T13:55:37.287Z,2.6
2023-07-26T13:58:37.284Z,2.5
2023-07-26T14:01:37.612Z,2.3
2023-07-26T14:04:37.321Z,2.3
2023-07-26T14:07:37.290Z,2.8
2023-07-26T14:10:37.296Z,2.5
2023-07-26T14:13:37.301Z,2.5
2023-07-26T14:16:37.645Z,2.2
2023-07-26T14:19:37.303Z,2.7
2023-07-26T14:22:37.316Z,2.4
2023-07-26T14:25:37.310Z,2.3
2023-07-26T14:28:37.296Z,2.5
2023-07-26T14:31:37.318Z,3.5
2023-07-26T14:34:37.335Z,2.6
2023-07-26T14:37:37.313Z,2.3
2023-07-26T14:40:37.322Z,2.4
2023-07-26T14:43:37.313Z,2.5
2023-07-26T14:46:37.432Z,2.5
2023-07-26T14:49:41.306Z,2.7
2023-07-26T14:52:37.334Z,2.7
2023-07-26T14:55:37.348Z,2.5
2023-07-26T14:58:37.362Z,2.3
2023-07-26T15:01:37.359Z,2.8
2023-07-26T15:04:37.486Z,2.8
2023-07-26T15:07:38.708Z,3.4
2023-07-26T15:10:37.405Z,4.1
2023-07-26T15:13:37.400Z,2.6
2023-07-26T15:16:37.847Z,3.7
2023-07-26T15:19:37.449Z,8.4
2023-07-26T15:22:37.429Z,8.8
2023-07-26T15:25:37.450Z,8.8
2023-07-26T15:28:37.455Z,5.5
2023-07-26T15:31:37.463Z,5.7
2023-07-26T15:34:37.482Z,5.2
2023-07-26T15:37:37.484Z,4.1
2023-07-26T15:46:42.505Z,3.8
2023-07-26T15:49:37.968Z,3.3
2023-07-26T15:52:37.532Z,3.6
2023-07-26T15:55:37.560Z,3
2023-07-26T15:58:37.549Z,3.3
2023-07-26T16:01:37.651Z,3.2
2023-07-26T16:08:10.661Z,3.1
2023-07-26T16:10:37.581Z,3
2023-07-26T16:13:37.582Z,3
2023-07-26T16:22:37.612Z,2.8
2023-07-26T16:25:37.609Z,3.2
2023-07-26T16:28:37.615Z,4.3
2023-07-26T16:31:37.785Z,3.2
2023-07-26T16:34:37.637Z,2.9
2023-07-26T16:37:37.629Z,3.4
2023-07-26T16:40:37.645Z,3.3
2023-07-26T16:43:37.645Z,3.2
2023-07-26T16:46:57.594Z,3.5
2023-07-26T16:49:37.657Z,3.5
2023-07-26T16:52:37.668Z,2.7
2023-07-26T16:55:37.678Z,3.7
2023-07-26T16:58:37.663Z,3
2023-07-26T17:01:37.701Z,3.8
2023-07-26T17:04:37.677Z,5.6
2023-07-26T17:07:37.685Z,2.8
2023-07-26T17:10:37.683Z,2.9
2023-07-26T17:13:37.686Z,4
2023-07-26T17:16:37.896Z,3.5
2023-07-26T17:19:37.701Z,2.9
2023-07-26T17:22:37.698Z,4.1
2023-07-26T17:25:37.703Z,3.3
2023-07-26T17:28:37.708Z,4.1
2023-07-26T17:31:37.721Z,3.7
2023-07-26T17:34:37.717Z,3.6
2023-07-26T17:37:37.717Z,3.5
2023-07-26T17:40:37.725Z,3.2
2023-07-26T17:43:37.738Z,3.3
2023-07-26T17:46:37.737Z,3.4
2023-07-26T17:49:37.733Z,3.4
2023-07-26T17:52:37.748Z,2.8
2023-07-26T17:55:37.745Z,3.3
2023-07-26T17:58:37.756Z,3.1
2023-07-26T18:01:37.797Z,4.3
2023-07-26T18:04:37.779Z,3.3
2023-07-26T18:07:37.776Z,3.8
2023-07-26T18:10:37.769Z,3.5
2023-07-26T18:13:37.773Z,3.1
2023-07-26T18:16:37.781Z,3.4
2023-07-26T18:19:37.785Z,3.9
2023-07-26T18:22:37.795Z,3.4
2023-07-26T18:25:37.798Z,3.6
2023-07-26T18:28:37.803Z,3.4
2023-07-26T18:31:39.405Z,4.8
2023-07-26T18:34:37.801Z,3.6
2023-07-26T18:37:37.812Z,3.9
2023-07-26T18:40:37.813Z,3.8
2023-07-26T18:43:37.820Z,2.8
2023-07-26T18:46:38.064Z,4.4
2023-07-26T18:49:37.827Z,3.5
2023-07-26T18:52:37.843Z,4
2023-07-26T18:55:37.845Z,4.1
2023-07-26T18:58:37.843Z,4
2023-07-26T19:01:37.850Z,3.7
2023-07-26T19:04:37.851Z,3.9
2023-07-26T19:07:37.859Z,4.1
2023-07-26T19:10:37.863Z,4.6
2023-07-26T19:13:37.869Z,3.7
2023-07-26T19:16:38.034Z,4.3
2023-07-26T19:19:37.873Z,3.6
2023-07-26T19:22:37.882Z,4.3
2023-07-26T19:25:37.882Z,4.4
2023-07-26T19:28:37.902Z,4.3
2023-07-26T19:31:37.893Z,4.7
2023-07-26T19:34:37.909Z,4.7
2023-07-26T19:37:37.904Z,5.2
2023-07-26T19:40:37.935Z,6
2023-07-26T19:43:37.932Z,5.3
2023-07-26T19:46:37.991Z,6.5
2023-07-26T19:49:38.081Z,5
2023-07-26T19:52:37.943Z,4.7
2023-07-26T19:55:37.945Z,4.3
2023-07-26T19:58:37.934Z,5.7
2023-07-26T20:01:37.982Z,4.6
2023-07-26T20:04:37.951Z,4.2
2023-07-26T20:07:37.951Z,4.2
2023-07-26T20:10:37.961Z,4.1
2023-07-26T20:13:37.960Z,5
2023-07-26T20:16:38.169Z,4.3
2023-07-26T20:19:37.969Z,5.4
2023-07-26T20:22:37.974Z,5.2
2023-07-26T20:25:38.980Z,4.6
2023-07-26T20:28:37.982Z,5
2023-07-26T20:31:37.984Z,4.4
2023-07-26T20:34:37.993Z,4.8
2023-07-26T20:37:37.996Z,4.7
2023-07-26T20:40:38.002Z,4.3
2023-07-26T20:43:38.007Z,4.4
2023-07-26T20:46:38.051Z,3.7
2023-07-26T20:49:38.012Z,4.7
2023-07-26T20:52:38.025Z,5.2
2023-07-26T20:55:38.013Z,4.2
2023-07-26T20:58:38.016Z,5.3
2023-07-26T21:01:38.148Z,4.5
2023-07-26T21:04:38.039Z,5
2023-07-26T21:07:38.044Z,5.2
2023-07-26T21:10:38.039Z,4.2
2023-07-26T21:13:38.041Z,4.8
2023-07-26T21:16:38.293Z,4.8
2023-07-26T21:19:38.049Z,5.7
2023-07-26T21:22:38.051Z,4.9
2023-07-26T21:25:38.054Z,6.9
2023-07-26T21:28:38.084Z,5.6
2023-07-26T21:31:38.082Z,5.8
2023-07-26T21:34:38.068Z,5.9
2023-07-26T21:37:38.079Z,4.5
2023-07-26T21:40:38.076Z,5.3
2023-07-26T21:43:38.082Z,4.3
2023-07-26T21:46:38.323Z,5
2023-07-26T21:49:38.095Z,4
2023-07-26T21:52:38.097Z,5.1
2023-07-26T21:55:38.106Z,5.1
2023-07-26T21:58:38.108Z,4.6
2023-07-26T22:01:38.128Z,4.7
2023-07-26T22:04:38.153Z,5.2
2023-07-26T22:07:38.136Z,5.6
2023-07-26T22:10:38.131Z,3.6
2023-07-26T22:13:38.139Z,4.6
2023-07-26T22:16:38.238Z,4.5
2023-07-26T22:19:38.132Z,4.3
2023-07-26T22:22:38.149Z,3.5
2023-07-26T22:25:38.154Z,5.2
2023-07-26T22:28:38.157Z,3.9
2023-07-26T22:31:38.688Z,4.4
2023-07-26T22:34:38.165Z,4.5
2023-07-26T22:37:38.177Z,4.3
2023-07-26T22:40:38.167Z,5.5
2023-07-26T22:43:38.183Z,4.2
2023-07-26T22:46:38.180Z,4.6
2023-07-26T22:49:38.182Z,4.1
2023-07-26T22:52:38.178Z,4
2023-07-26T22:55:38.190Z,4.4
2023-07-26T22:58:38.189Z,4.9
2023-07-26T23:01:38.381Z,4.2
2023-07-26T23:04:38.209Z,4.6
2023-07-26T23:07:38.213Z,5.2
2023-07-26T23:10:38.209Z,4.9
2023-07-26T23:13:38.204Z,4.9
2023-07-26T23:16:38.219Z,5.3
2023-07-26T23:19:38.226Z,6.1
2023-07-26T23:22:38.240Z,5.8
2023-07-26T23:25:38.238Z,5.6
2023-07-26T23:28:38.254Z,5.2
2023-07-26T23:31:38.400Z,5
2023-07-26T23:34:38.245Z,5.4
2023-07-26T23:37:38.240Z,5.2
2023-07-26T23:40:38.250Z,5.1
2023-07-26T23:43:38.260Z,5.4
2023-07-26T23:46:38.275Z,5.7
2023-07-26T23:49:38.291Z,6.1
2023-07-26T23:52:38.284Z,5.8
2023-07-26T23:55:38.295Z,6.8
2023-07-26T23:58:38.306Z,5.4
